createdAt,value
2019-03-24T00:00:13.699Z,86.80
2019-03-24T00:02:43.084Z,86.36
2019-03-24T00:05:12.609Z,86.81
2019-03-24T00:07:42.069Z,87.11
2019-03-24T00:10:11.589Z,87.02
2019-03-24T00:12:41.127Z,87.52
2019-03-24T00:15:10.729Z,87.15
2019-03-24T00:17:40.480Z,88.08
2019-03-24T00:20:10.566Z,87.75
2019-03-24T00:22:39.990Z,89.15
2019-03-24T00:25:09.674Z,88.07
2019-03-24T00:27:39.180Z,88.23
2019-03-24T00:30:09.199Z,87.98
2019-03-24T00:32:38.614Z,88.47
2019-03-24T00:35:08.187Z,88.13
2019-03-24T00:37:37.728Z,88.06
2019-03-24T00:40:07.594Z,89.02
2019-03-24T00:42:37.048Z,89.39
2019-03-24T00:45:07.393Z,88.64
2019-03-24T00:47:36.801Z,90.35
2019-03-24T00:50:06.793Z,89.49
2019-03-24T00:52:36.222Z,89.12
2019-03-24T00:55:06.412Z,90.05
2019-03-24T00:57:37.647Z,89.17
2019-03-24T01:00:08.267Z,88.86
2019-03-24T01:02:37.720Z,89.97
2019-03-24T01:05:08.717Z,89.94
2019-03-24T01:15:47.093Z,89.61
2019-03-24T01:18:08.252Z,89.41
2019-03-24T01:20:37.609Z,89.88
2019-03-24T01:23:07.190Z,90.05
2019-03-24T01:25:36.930Z,89.75
2019-03-24T01:28:06.708Z,89.70
2019-03-24T01:30:36.419Z,90.28
2019-03-24T01:33:06.281Z,90.00
2019-03-24T01:35:35.744Z,90.65
2019-03-24T01:38:05.209Z,91.00
2019-03-24T01:40:34.745Z,90.28
2019-03-24T01:43:04.390Z,90.11
2019-03-24T01:45:34.406Z,89.83
2019-03-24T01:48:03.933Z,89.71
2019-03-24T01:50:33.284Z,89.98
2019-03-24T01:53:02.682Z,89.92
2019-03-24T01:55:32.243Z,89.67
2019-03-24T01:58:01.559Z,90.04
2019-03-24T02:00:31.086Z,90.04
2019-03-24T02:03:00.456Z,89.71
2019-03-24T02:05:31.378Z,90.15
2019-03-24T02:08:00.743Z,90.02
2019-03-24T02:10:30.314Z,90.18
2019-03-24T02:13:12.334Z,90.85
2019-03-24T02:15:41.936Z,90.44
2019-03-24T02:18:11.343Z,90.01
2019-03-24T02:20:40.695Z,90.24
2019-03-24T02:23:10.124Z,89.80
2019-03-24T02:25:39.645Z,90.17
2019-03-24T02:28:08.973Z,90.66
2019-03-24T02:30:38.372Z,90.76
2019-03-24T02:33:08.011Z,90.17
2019-03-24T02:35:37.781Z,90.25
2019-03-24T02:38:07.396Z,91.50
2019-03-24T02:40:36.881Z,91.14
2019-03-24T02:43:06.374Z,90.61
2019-03-24T02:45:35.745Z,90.37
2019-03-24T02:48:05.255Z,90.22
2019-03-24T02:50:34.593Z,90.21
2019-03-24T02:53:04.021Z,90.48
2019-03-24T02:55:33.366Z,90.72
2019-03-24T02:58:03.070Z,90.84
2019-03-24T03:00:32.684Z,90.40
2019-03-24T03:03:02.042Z,90.40
2019-03-24T03:05:31.571Z,90.55
2019-03-24T03:08:00.936Z,90.68
2019-03-24T03:10:30.447Z,91.37
2019-03-24T03:12:59.983Z,91.11
2019-03-24T03:15:29.498Z,90.83
2019-03-24T03:17:58.992Z,90.82
2019-03-24T03:20:28.421Z,90.82
2019-03-24T03:22:57.921Z,91.02
2019-03-24T03:25:27.317Z,90.74
2019-03-24T03:27:56.668Z,90.92
2019-03-24T03:30:26.055Z,90.75
2019-03-24T03:32:55.443Z,90.75
2019-03-24T03:35:24.831Z,91.66
2019-03-24T03:37:55.227Z,91.85
2019-03-24T03:40:24.825Z,91.90
2019-03-24T03:42:54.249Z,92.03
2019-03-24T03:45:28.449Z,91.87
2019-03-24T03:47:58.052Z,91.29
2019-03-24T03:50:27.716Z,91.31
2019-03-24T03:52:57.132Z,91.27
2019-03-24T03:55:26.556Z,91.18
2019-03-24T03:57:56.033Z,91.48
2019-03-24T04:00:43.467Z,91.48
2019-03-24T04:03:12.943Z,92.66
2019-03-24T04:05:42.475Z,92.25
2019-03-24T04:08:12.222Z,91.65
2019-03-24T04:10:41.559Z,91.50
2019-03-24T04:13:10.905Z,91.51
2019-03-24T04:15:40.334Z,91.82
2019-03-24T04:18:09.729Z,91.68
2019-03-24T04:20:39.180Z,91.40
2019-03-24T04:23:08.578Z,91.25
2019-03-24T04:25:38.031Z,92.04
2019-03-24T04:28:07.497Z,91.72
2019-03-24T04:30:36.889Z,92.00
2019-03-24T04:33:06.241Z,91.76
2019-03-24T04:35:35.613Z,92.41
2019-03-24T04:38:05.070Z,92.25
2019-03-24T04:40:34.523Z,91.76
2019-03-24T04:43:04.003Z,91.51
2019-03-24T04:45:33.346Z,91.39
2019-03-24T04:48:02.730Z,92.19
2019-03-24T04:50:32.047Z,92.46
2019-03-24T04:53:01.429Z,91.94
2019-03-24T04:55:30.793Z,91.62
2019-03-24T04:58:00.260Z,91.66
2019-03-24T05:00:37.539Z,93.32
2019-03-24T05:03:07.143Z,93.23
2019-03-24T05:05:37.362Z,92.55
2019-03-24T05:08:07.074Z,91.99
2019-03-24T05:10:36.525Z,91.75
2019-03-24T05:13:05.949Z,91.72
2019-03-24T05:15:35.318Z,91.38
2019-03-24T05:18:04.719Z,91.96
2019-03-24T05:20:34.130Z,91.80
2019-03-24T05:23:03.466Z,91.39
2019-03-24T05:25:32.858Z,91.85
2019-03-24T05:28:02.195Z,92.33
2019-03-24T05:30:31.616Z,92.31
2019-03-24T05:33:01.043Z,92.85
2019-03-24T05:35:30.709Z,94.20
2019-03-24T05:38:00.245Z,94.16
2019-03-24T05:40:29.724Z,93.14
2019-03-24T05:42:59.176Z,92.42
2019-03-24T05:45:28.840Z,92.14
2019-03-24T05:47:58.654Z,92.17
2019-03-24T05:50:27.971Z,92.15
2019-03-24T05:52:57.381Z,92.17
2019-03-24T05:55:26.877Z,93.14
2019-03-24T05:57:56.330Z,92.80
2019-03-24T06:00:25.872Z,92.77
2019-03-24T06:02:57.269Z,92.87
2019-03-24T06:05:26.430Z,92.93
2019-03-24T06:07:55.786Z,92.89
2019-03-24T06:10:25.133Z,92.76
2019-03-24T06:12:54.545Z,93.26
2019-03-24T06:15:24.110Z,93.20
2019-03-24T06:17:53.471Z,92.96
2019-03-24T06:20:22.836Z,92.80
2019-03-24T06:22:52.198Z,92.63
2019-03-24T06:25:21.557Z,92.50
2019-03-24T06:27:50.993Z,92.40
2019-03-24T06:30:20.450Z,92.32
2019-03-24T06:32:49.824Z,92.42
2019-03-24T06:35:20.731Z,92.27
2019-03-24T06:37:50.251Z,92.57
2019-03-24T06:40:19.962Z,92.31
2019-03-24T06:42:49.415Z,91.99
2019-03-24T06:45:27.992Z,92.17
2019-03-24T06:47:58.485Z,91.94
2019-03-24T06:50:28.249Z,91.66
2019-03-24T06:52:57.803Z,91.48
2019-03-24T06:55:27.210Z,91.71
2019-03-24T06:57:56.566Z,91.72
2019-03-24T07:00:26.101Z,91.63
2019-03-24T07:02:55.629Z,91.33
2019-03-24T07:05:25.313Z,91.20
2019-03-24T07:07:54.728Z,91.07
2019-03-24T07:10:24.377Z,91.09
2019-03-24T07:12:53.701Z,91.04
2019-03-24T07:15:25.999Z,91.00
2019-03-24T07:17:55.418Z,91.14
2019-03-24T07:20:24.775Z,90.95
2019-03-24T07:22:54.212Z,90.98
2019-03-24T07:25:23.630Z,91.06
2019-03-24T07:27:52.969Z,91.09
2019-03-24T07:30:22.499Z,90.69
2019-03-24T07:32:51.853Z,90.90
2019-03-24T07:35:21.259Z,90.90
2019-03-24T07:37:50.652Z,90.51
2019-03-24T07:40:20.177Z,89.97
2019-03-24T07:42:50.108Z,90.45
2019-03-24T07:45:19.805Z,90.49
2019-03-24T07:47:49.583Z,90.28
2019-03-24T07:50:19.506Z,89.93
2019-03-24T07:52:49.189Z,89.69
2019-03-24T07:55:18.507Z,89.72
2019-03-24T07:57:47.870Z,89.56
2019-03-24T08:00:33.494Z,89.38
2019-03-24T08:03:02.874Z,89.47
2019-03-24T08:05:32.637Z,89.20
2019-03-24T08:08:01.986Z,88.98
2019-03-24T08:10:31.668Z,89.04
2019-03-24T08:13:01.767Z,88.68
2019-03-24T08:15:31.148Z,88.06
2019-03-24T08:18:00.627Z,88.41
2019-03-24T08:20:30.017Z,88.35
2019-03-24T08:22:59.455Z,87.37
2019-03-24T08:25:28.811Z,87.40
2019-03-24T08:27:58.188Z,86.99
2019-03-24T08:30:33.195Z,86.87
2019-03-24T08:33:02.798Z,86.06
2019-03-24T08:35:32.644Z,85.78
2019-03-24T08:38:02.446Z,85.49
2019-03-24T08:40:32.141Z,85.29
2019-03-24T08:43:01.570Z,85.47
2019-03-24T08:45:31.377Z,84.65
2019-03-24T08:48:02.163Z,83.72
2019-03-24T08:50:32.582Z,84.54
2019-03-24T08:53:03.129Z,84.91
2019-03-24T08:55:33.767Z,84.36
2019-03-24T08:58:03.326Z,84.78
2019-03-24T09:00:32.933Z,84.55
2019-03-24T09:03:02.546Z,84.33
2019-03-24T09:05:33.675Z,84.47
2019-03-24T09:08:03.588Z,84.47
2019-03-24T09:10:34.247Z,82.48
2019-03-24T09:13:03.991Z,81.03
2019-03-24T09:15:33.411Z,80.39
2019-03-24T09:18:02.818Z,80.83
2019-03-24T09:20:41.715Z,80.12
2019-03-24T09:23:06.230Z,80.19
2019-03-24T09:25:35.695Z,79.52
2019-03-24T09:28:09.932Z,79.60
2019-03-24T09:30:40.039Z,80.03
2019-03-24T09:33:09.696Z,78.04
2019-03-24T09:35:39.537Z,78.22
2019-03-24T09:38:09.086Z,77.28
2019-03-24T09:40:39.673Z,77.09
2019-03-24T09:43:09.131Z,77.77
2019-03-24T09:45:38.662Z,78.40
2019-03-24T09:48:08.170Z,78.48
2019-03-24T09:50:37.723Z,78.09
2019-03-24T09:53:07.252Z,76.36
2019-03-24T09:55:39.523Z,76.95
2019-03-24T09:58:09.088Z,76.67
2019-03-24T10:00:38.658Z,77.24
2019-03-24T10:03:08.154Z,76.36
2019-03-24T10:05:37.691Z,76.04
2019-03-24T10:08:07.062Z,75.21
2019-03-24T10:10:36.562Z,75.62
2019-03-24T10:13:06.097Z,74.59
2019-03-24T10:15:35.556Z,75.16
2019-03-24T10:18:11.306Z,74.59
2019-03-24T10:20:40.645Z,73.94
2019-03-24T10:23:10.137Z,75.44
2019-03-24T10:25:39.538Z,73.35
2019-03-24T10:28:09.303Z,71.89
2019-03-24T10:30:39.482Z,71.32
2019-03-24T10:33:10.329Z,70.92
2019-03-24T10:35:39.689Z,68.31
2019-03-24T10:38:09.182Z,67.92
2019-03-24T10:40:39.277Z,68.92
2019-03-24T10:43:14.869Z,69.65
2019-03-24T10:45:46.947Z,67.82
2019-03-24T10:48:16.294Z,68.42
2019-03-24T10:50:45.679Z,68.02
2019-03-24T10:53:15.101Z,68.27
2019-03-24T10:55:44.548Z,67.63
2019-03-24T10:58:14.014Z,68.00
2019-03-24T11:00:44.799Z,67.69
2019-03-24T11:03:14.375Z,67.42
2019-03-24T11:05:43.876Z,67.55
2019-03-24T11:08:13.461Z,69.07
2019-03-24T11:10:43.051Z,67.29
2019-03-24T11:13:15.218Z,66.77
2019-03-24T11:15:44.786Z,65.34
2019-03-24T11:18:14.313Z,64.05
2019-03-24T11:20:43.823Z,63.86
2019-03-24T11:23:33.766Z,61.65
2019-03-24T11:26:03.463Z,62.15
2019-03-24T11:28:32.875Z,63.87
2019-03-24T11:31:02.309Z,61.44
2019-03-24T11:33:31.817Z,60.80
2019-03-24T11:36:03.396Z,60.81
2019-03-24T11:38:32.916Z,61.68
2019-03-24T11:41:02.332Z,59.77
2019-03-24T11:43:31.831Z,58.75
2019-03-24T11:46:01.332Z,58.59
2019-03-24T11:48:45.594Z,56.89
2019-03-24T12:01:55.048Z,56.38
2019-03-24T12:04:25.386Z,55.82
2019-03-24T12:06:58.266Z,57.13
2019-03-24T12:09:29.810Z,57.44
2019-03-24T12:12:01.334Z,57.92
2019-03-24T12:32:25.288Z,52.57
2019-03-24T12:34:56.869Z,47.67
2019-03-24T12:37:26.271Z,50.54
2019-03-24T12:39:58.016Z,49.30
2019-03-24T13:27:25.770Z,48.47
2019-03-24T13:29:55.293Z,50.07
2019-03-24T13:32:24.666Z,51.12
2019-03-24T13:34:54.079Z,50.30
2019-03-24T13:37:23.764Z,51.06
2019-03-24T13:39:53.391Z,51.44
2019-03-24T13:42:53.216Z,50.92
2019-03-24T13:51:29.132Z,51.38
2019-03-24T13:53:58.292Z,52.56
2019-03-24T13:56:27.747Z,51.48
2019-03-24T13:58:57.227Z,49.58
2019-03-24T14:01:26.733Z,48.14
2019-03-24T14:03:56.222Z,48.81
2019-03-24T14:06:28.419Z,49.79
2019-03-24T14:08:58.135Z,50.13
2019-03-24T14:11:27.625Z,49.77
2019-03-24T14:13:57.015Z,49.33
2019-03-24T14:16:26.532Z,48.98
2019-03-24T14:18:56.549Z,47.89
2019-03-24T14:21:26.374Z,48.21
2019-03-24T14:23:55.834Z,48.12
2019-03-24T14:26:25.319Z,47.93
2019-03-24T14:28:54.829Z,48.70
2019-03-24T14:31:24.203Z,48.42
2019-03-24T14:33:53.602Z,50.62
2019-03-24T14:36:23.079Z,51.52
2019-03-24T14:38:52.456Z,52.29
2019-03-24T14:41:22.189Z,52.29
2019-03-24T14:43:51.665Z,51.76
2019-03-24T14:46:30.757Z,52.42
2019-03-24T14:49:00.358Z,50.84
2019-03-24T14:51:30.068Z,50.69
2019-03-24T14:54:30.942Z,50.95
2019-03-24T14:57:16.641Z,51.56
2019-03-24T14:59:49.182Z,52.62
2019-03-24T15:02:18.708Z,51.98
2019-03-24T15:04:55.288Z,52.38
2019-03-24T15:07:24.730Z,53.51
2019-03-24T15:10:01.231Z,52.39
2019-03-24T15:12:44.158Z,52.90
2019-03-24T15:15:13.903Z,52.37
2019-03-24T15:17:43.408Z,51.75
2019-03-24T15:20:13.329Z,51.44
2019-03-24T15:22:42.839Z,51.01
2019-03-24T15:25:13.556Z,50.06
2019-03-24T15:27:43.224Z,50.90
2019-03-24T15:30:13.502Z,48.97
2019-03-24T15:32:53.559Z,48.69
2019-03-24T15:35:23.460Z,48.03
2019-03-24T15:37:53.021Z,47.50
2019-03-24T15:40:22.490Z,47.69
2019-03-24T15:42:52.005Z,48.50
2019-03-24T15:45:21.785Z,47.87
2019-03-24T15:47:52.502Z,47.91
2019-03-24T15:50:21.941Z,49.32
2019-03-24T15:52:51.505Z,48.65
2019-03-24T15:55:23.405Z,47.76
2019-03-24T15:57:59.008Z,47.91
2019-03-24T16:00:43.211Z,49.84
2019-03-24T16:03:12.959Z,48.99
2019-03-24T16:05:42.503Z,47.84
2019-03-24T16:08:14.277Z,49.45
2019-03-24T16:10:43.987Z,51.30
2019-03-24T16:13:13.586Z,40.80
2019-03-24T16:15:43.662Z,39.52
2019-03-24T16:18:16.777Z,39.62
2019-03-24T16:20:46.436Z,47.02
2019-03-24T16:23:16.830Z,37.66
2019-03-24T16:25:47.493Z,34.17
2019-03-24T16:28:20.457Z,35.24
2019-03-24T16:33:58.709Z,39.27
2019-03-24T16:36:29.407Z,45.85
2019-03-24T16:39:03.773Z,47.56
2019-03-24T16:41:32.390Z,54.46
2019-03-24T16:44:01.766Z,48.71
2019-03-24T16:46:31.847Z,49.81
2019-03-24T16:49:49.429Z,58.36
2019-03-24T16:52:22.168Z,58.36
2019-03-24T16:55:43.785Z,58.99
2019-03-24T16:58:36.677Z,58.99
2019-03-24T17:01:27.735Z,60.50
2019-03-24T17:03:56.400Z,61.91
2019-03-24T17:06:23.674Z,63.57
2019-03-24T17:08:53.718Z,62.65
2019-03-24T17:11:21.506Z,64.62
2019-03-24T17:13:48.865Z,63.69
2019-03-24T17:16:16.216Z,63.30
2019-03-24T17:18:44.666Z,63.68
2019-03-24T17:21:33.078Z,64.37
2019-03-24T17:24:00.278Z,66.05
2019-03-24T17:26:28.583Z,66.20
2019-03-24T17:28:55.860Z,65.65
2019-03-24T17:31:23.159Z,67.86
2019-03-24T17:33:51.475Z,66.86
2019-03-24T17:36:18.664Z,67.39
2019-03-24T17:38:45.904Z,69.03
2019-03-24T17:41:15.515Z,69.16
2019-03-24T17:43:42.702Z,67.96
2019-03-24T17:46:09.796Z,68.05
2019-03-24T17:48:37.477Z,68.54
2019-03-24T17:51:05.792Z,68.33
2019-03-24T17:53:33.775Z,69.08
2019-03-24T17:56:00.860Z,69.99
2019-03-24T17:58:28.019Z,69.78
2019-03-24T18:00:56.638Z,69.55
2019-03-24T18:03:23.949Z,69.60
2019-03-24T18:05:51.319Z,71.05
2019-03-24T18:08:19.932Z,70.43
2019-03-24T18:10:47.015Z,70.33
2019-03-24T18:13:15.303Z,70.86
2019-03-24T18:15:42.493Z,71.17
2019-03-24T18:18:09.726Z,70.56
2019-03-24T18:20:37.125Z,70.90
2019-03-24T18:23:04.331Z,70.66
2019-03-24T18:25:31.714Z,71.24
2019-03-24T18:27:59.160Z,71.09
2019-03-24T18:30:26.754Z,71.17
2019-03-24T18:32:54.008Z,73.04
2019-03-24T18:35:21.683Z,72.98
2019-03-24T18:37:48.838Z,72.68
2019-03-24T18:40:17.238Z,71.82
2019-03-24T18:42:44.322Z,72.12
2019-03-24T18:45:13.026Z,75.10
2019-03-24T18:47:40.218Z,73.22
2019-03-24T18:50:09.170Z,74.65
2019-03-24T18:52:36.530Z,75.39
2019-03-24T18:55:04.296Z,74.99
2019-03-24T18:57:31.485Z,74.93
2019-03-24T18:59:59.375Z,73.74
2019-03-24T19:02:26.893Z,74.56
2019-03-24T19:05:00.462Z,74.11
2019-03-24T19:07:27.732Z,74.85
2019-03-24T19:09:55.067Z,74.32
2019-03-24T19:12:22.419Z,74.49
2019-03-24T19:14:49.714Z,75.40
2019-03-24T19:17:17.141Z,75.60
2019-03-24T19:19:46.609Z,75.48
2019-03-24T19:22:14.000Z,73.95
2019-03-24T19:24:43.170Z,73.05
2019-03-24T19:27:11.282Z,72.90
2019-03-24T19:30:00.636Z,73.76
2019-03-24T19:32:57.825Z,73.06
2019-03-24T19:36:33.384Z,72.71
2019-03-24T19:39:02.058Z,72.14
2019-03-24T19:41:31.004Z,71.78
2019-03-24T19:43:58.760Z,71.59
2019-03-24T19:46:26.893Z,72.94
2019-03-24T19:48:57.015Z,72.16
2019-03-24T19:51:24.439Z,71.17
2019-03-24T19:53:51.740Z,71.06
2019-03-24T19:56:19.265Z,70.69
2019-03-24T19:58:46.695Z,71.63
2019-03-24T20:01:14.386Z,71.06
2019-03-24T20:03:43.461Z,70.68
2019-03-24T20:06:10.921Z,69.71
2019-03-24T20:08:38.096Z,70.23
2019-03-24T20:11:11.314Z,70.79
2019-03-24T20:13:38.679Z,70.77
2019-03-24T20:16:06.053Z,69.15
2019-03-24T20:18:33.313Z,69.83
2019-03-24T20:21:00.567Z,69.25
2019-03-24T20:23:28.062Z,67.57
2019-03-24T20:25:55.187Z,67.71
2019-03-24T20:28:22.331Z,68.32
2019-03-24T20:30:49.698Z,67.59
2019-03-24T20:33:16.957Z,67.35
2019-03-24T20:35:44.269Z,67.71
2019-03-24T20:38:12.740Z,67.78
2019-03-24T20:40:40.116Z,68.08
2019-03-24T20:43:07.207Z,68.28
2019-03-24T20:45:35.484Z,68.57
2019-03-24T20:48:03.040Z,68.98
2019-03-24T20:50:30.270Z,68.81
2019-03-24T20:53:04.173Z,68.34
2019-03-24T20:55:26.876Z,69.54
2019-03-24T20:57:54.176Z,69.77
2019-03-24T21:00:35.036Z,70.01
2019-03-24T21:03:03.667Z,69.49
2019-03-24T21:05:30.869Z,69.54
2019-03-24T21:07:58.489Z,69.37
2019-03-24T21:10:28.268Z,69.89
2019-03-24T21:12:55.714Z,70.41
2019-03-24T21:15:23.876Z,71.14
2019-03-24T21:17:51.080Z,71.34
2019-03-24T21:20:19.168Z,71.28
2019-03-24T21:22:47.426Z,72.02
2019-03-24T21:25:14.840Z,70.84
2019-03-24T21:27:42.253Z,71.42
2019-03-24T21:30:13.272Z,71.24
2019-03-24T21:32:41.277Z,71.45
2019-03-24T21:35:09.227Z,71.74
2019-03-24T21:37:36.977Z,72.07
2019-03-24T21:40:06.253Z,72.40
2019-03-24T21:42:33.680Z,72.50
2019-03-24T21:45:00.771Z,72.55
2019-03-24T21:47:28.154Z,72.17
2019-03-24T21:49:55.286Z,72.57
2019-03-24T21:52:22.567Z,72.58
2019-03-24T21:54:49.680Z,72.55
2019-03-24T21:57:17.840Z,73.29
2019-03-24T21:59:45.050Z,72.90
2019-03-24T22:02:13.515Z,72.83
2019-03-24T22:04:40.720Z,73.55
2019-03-24T22:07:07.985Z,72.77
2019-03-24T22:13:15.962Z,73.84
2019-03-24T22:15:52.686Z,74.46
2019-03-24T22:18:32.303Z,74.52
2019-03-24T22:20:59.918Z,74.40
2019-03-24T22:23:27.037Z,74.73
2019-03-24T22:25:54.132Z,75.02
2019-03-24T22:28:36.944Z,74.95
2019-03-24T22:31:04.127Z,75.50
2019-03-24T22:33:31.311Z,75.19
2019-03-24T22:36:01.226Z,75.74
2019-03-24T22:38:28.446Z,75.61
2019-03-24T22:40:55.533Z,76.22
2019-03-24T22:43:22.737Z,76.40
2019-03-24T22:45:49.829Z,75.80
2019-03-24T22:48:17.185Z,76.70
2019-03-24T22:50:44.367Z,76.57
2019-03-24T22:53:11.423Z,76.37
2019-03-24T22:55:38.498Z,76.03
2019-03-24T22:58:05.800Z,76.15
2019-03-24T23:00:53.163Z,76.20
2019-03-24T23:03:21.125Z,76.40
2019-03-24T23:05:48.543Z,75.87
2019-03-24T23:08:15.715Z,75.50
2019-03-24T23:10:42.821Z,75.83
2019-03-24T23:13:10.371Z,75.92
2019-03-24T23:15:37.629Z,75.68
2019-03-24T23:18:04.986Z,75.95
2019-03-24T23:20:32.242Z,75.00
2019-03-24T23:22:59.461Z,76.04
2019-03-24T23:25:26.625Z,75.61
2019-03-24T23:27:53.848Z,75.71
2019-03-24T23:30:21.007Z,75.39
2019-03-24T23:32:48.245Z,76.35
2019-03-24T23:35:15.556Z,76.70
2019-03-24T23:37:42.634Z,76.07
2019-03-24T23:40:11.587Z,75.92
2019-03-24T23:42:38.728Z,76.03
2019-03-24T23:45:06.364Z,75.81
2019-03-24T23:47:33.567Z,75.98
2019-03-24T23:50:00.938Z,75.50
2019-03-24T23:52:28.091Z,75.50
2019-03-24T23:54:55.168Z,75.48
2019-03-24T23:57:22.321Z,75.07
2019-03-24T23:59:49.408Z,75.09
